Time;durP1;ratioP1;P1;durP2;ratioP2;P2;SDS_P1;SDS_P2;PMS_P1;PMS_P2;Temp;Humidity;BMP_temperature;BMP_pressure;BME280_temperature;BME280_humidity;BME280_pressure;Samples;Min_cycle;Max_cycle;Signal;HPM_P1;HPM_P2
2022/09/01 00:04:19;;;;;;;;;;;;;;;17.25;54.24512;102345.9;;;;-69
2022/09/01 00:04:57;;;;;;;2.6;0.8;;;;;;;;;;;;;-70
2022/09/01 00:09:19;;;;;;;;;;;;;;;17.19;54.38477;102340.7;;;;-72
2022/09/01 00:14:18;;;;;;;;;;;;;;;17.16;53.91797;102341;;;;-70
2022/09/01 00:19:21;;;;;;;;;;;;;;;17.12;53.57324;102340.7;;;;-75
2022/09/01 00:24:19;;;;;;;;;;;;;;;17.04;53.9707;102340;;;;-75
2022/09/01 00:29:18;;;;;;;;;;;;;;;17;54.08984;102338.7;;;;-75
2022/09/01 00:34:18;;;;;;;;;;;;;;;16.96;53.97266;102335.8;;;;-75
2022/09/01 00:34:56;;;;;;;1.7;0.8;;;;;;;;;;;;;-74
2022/09/01 00:39:18;;;;;;;;;;;;;;;16.92;54.01172;102338.1;;;;-76
2022/09/01 00:44:22;;;;;;;;;;;;;;;16.9;54.57617;102330;;;;-75
2022/09/01 00:49:20;;;;;;;;;;;;;;;16.89;54.06543;102324.3;;;;-75
2022/09/01 00:54:21;;;;;;;;;;;;;;;16.84;54.10352;102316;;;;-74
2022/09/01 00:59:19;;;;;;;;;;;;;;;16.79;55.24023;102310.2;;;;-75
2022/09/01 01:04:18;;;;;;;;;;;;;;;16.77;54.26563;102313.6;;;;-75
2022/09/01 01:04:59;;;;;;;5;1;;;;;;;;;;;;;-75
2022/09/01 01:09:18;;;;;;;;;;;;;;;16.73;55.09766;102307.7;;;;-75
2022/09/01 01:14:19;;;;;;;;;;;;;;;16.71;54.79004;102310.5;;;;-75
2022/09/01 01:23:01;;;;;;;;;;;;;;;16.68;55.2959;102305.1;;;;-75
2022/09/01 01:24:35;;;;;;;;;;;;;;;16.66;55.26953;102304.3;;;;-76
2022/09/01 01:29:18;;;;;;;;;;;;;;;16.63;55.1875;102302.9;;;;-75
2022/09/01 01:34:19;;;;;;;;;;;;;;;16.6;55.0127;102298.5;;;;-75
2022/09/01 01:35:04;;;;;;;3.8;1;;;;;;;;;;;;;-74
2022/09/01 01:39:20;;;;;;;;;;;;;;;16.57;55.11035;102302.4;;;;-75
2022/09/01 01:44:26;;;;;;;;;;;;;;;16.53;55.47949;102304;;;;-75
2022/09/01 01:49:18;;;;;;;;;;;;;;;16.52;55.34277;102300.9;;;;-75
2022/09/01 01:54:18;;;;;;;;;;;;;;;16.49;55.22559;102303.8;;;;-75
2022/09/01 01:59:18;;;;;;;;;;;;;;;16.43;54.96973;102305.2;;;;-75
2022/09/01 02:04:18;;;;;;;;;;;;;;;16.41;54.87793;102301;;;;-75
2022/09/01 02:05:01;;;;;;;2.6;1.1;;;;;;;;;;;;;-74
2022/09/01 02:09:19;;;;;;;;;;;;;;;16.38;54.78223;102305;;;;-75
2022/09/01 02:14:20;;;;;;;;;;;;;;;16.32;54.50488;102304.2;;;;-74
2022/09/01 02:19:19;;;;;;;;;;;;;;;16.28;54.46484;102305.2;;;;-76
2022/09/01 02:24:19;;;;;;;;;;;;;;;16.22;54.43457;102304.8;;;;-74
2022/09/01 02:29:20;;;;;;;;;;;;;;;16.19;54.19434;102306.8;;;;-76
2022/09/01 02:34:18;;;;;;;;;;;;;;;16.13;54.23242;102303.8;;;;-74
2022/09/01 02:35:06;;;;;;;2.4;0.9;;;;;;;;;;;;;-75
2022/09/01 02:39:18;;;;;;;;;;;;;;;16.08;54.26074;102301.4;;;;-74
2022/09/01 02:44:21;;;;;;;;;;;;;;;16.01;54.11523;102302.5;;;;-75
2022/09/01 02:49:27;;;;;;;;;;;;;;;15.96;54.45996;102301.8;;;;-74
2022/09/01 02:54:21;;;;;;;;;;;;;;;15.91;54.39746;102303.7;;;;-75
2022/09/01 02:59:20;;;;;;;;;;;;;;;15.87;54.5498;102298.2;;;;-75
2022/09/01 03:04:19;;;;;;;;;;;;;;;15.86;54.4248;102295.3;;;;-76
2022/09/01 03:05:06;;;;;;;2.2;0.8;;;;;;;;;;;;;-74
2022/09/01 03:09:19;;;;;;;;;;;;;;;15.82;54.38574;102293.4;;;;-76
2022/09/01 03:14:23;;;;;;;;;;;;;;;15.79;54.52832;102295.1;;;;-76
2022/09/01 03:19:19;;;;;;;;;;;;;;;15.74;54.51172;102291.8;;;;-75
2022/09/01 03:24:21;;;;;;;;;;;;;;;15.7;54.47363;102294.8;;;;-75
2022/09/01 03:29:18;;;;;;;;;;;;;;;15.66;54.26563;102290.1;;;;-74
2022/09/01 03:34:22;;;;;;;;;;;;;;;15.62;54.29395;102291;;;;-75
2022/09/01 03:35:07;;;;;;;1.6;0.9;;;;;;;;;;;;;-74
2022/09/01 03:39:18;;;;;;;;;;;;;;;15.56;54.27539;102283.4;;;;-75
2022/09/01 03:44:18;;;;;;;;;;;;;;;15.53;54.2041;102283.7;;;;-74
2022/09/01 03:49:23;;;;;;;;;;;;;;;15.48;54.06152;102278;;;;-74
2022/09/01 03:54:18;;;;;;;;;;;;;;;15.42;54.11133;102272.7;;;;-75
2022/09/01 03:59:21;;;;;;;;;;;;;;;15.38;53.9043;102272.3;;;;-74
2022/09/01 04:04:18;;;;;;;;;;;;;;;15.34;53.84277;102268.3;;;;-74
2022/09/01 04:05:09;;;;;;;2;0.9;;;;;;;;;;;;;-74
2022/09/01 04:09:18;;;;;;;;;;;;;;;15.26;53.80957;102267.5;;;;-74
2022/09/01 04:14:18;;;;;;;;;;;;;;;15.2;53.86914;102268.7;;;;-74
2022/09/01 04:19:23;;;;;;;;;;;;;;;15.12;53.89453;102263.4;;;;-74
2022/09/01 04:24:18;;;;;;;;;;;;;;;15.05;53.98535;102263.7;;;;-74
2022/09/01 04:29:18;;;;;;;;;;;;;;;14.99;53.7998;102269;;;;-74
2022/09/01 04:34:18;;;;;;;;;;;;;;;14.93;53.87109;102272.1;;;;-75
2022/09/01 04:35:15;;;;;;;3;0.8;;;;;;;;;;;;;-74
2022/09/01 04:39:18;;;;;;;;;;;;;;;14.86;53.8291;102274.6;;;;-75
2022/09/01 04:44:21;;;;;;;;;;;;;;;14.8;53.93359;102271.9;;;;-75
2022/09/01 04:49:21;;;;;;;;;;;;;;;14.72;54.04785;102271.8;;;;-74
2022/09/01 04:54:19;;;;;;;;;;;;;;;14.63;53.94824;102271.3;;;;-74
2022/09/01 04:59:19;;;;;;;;;;;;;;;14.6;54.00977;102270.2;;;;-74
2022/09/01 05:04:20;;;;;;;;;;;;;;;14.55;53.92578;102270.3;;;;-72
2022/09/01 05:05:12;;;;;;;1.7;0.9;;;;;;;;;;;;;-74
2022/09/01 05:09:19;;;;;;;;;;;;;;;14.53;53.94434;102269;;;;-74
2022/09/01 05:14:20;;;;;;;;;;;;;;;14.49;53.8291;102270.4;;;;-74
2022/09/01 05:19:19;;;;;;;;;;;;;;;14.49;53.89648;102276.6;;;;-75
2022/09/01 05:24:20;;;;;;;;;;;;;;;14.45;53.8457;102274.8;;;;-74
2022/09/01 05:29:19;;;;;;;;;;;;;;;14.44;53.67578;102283.2;;;;-75
2022/09/01 05:34:21;;;;;;;;;;;;;;;14.45;53.53223;102288;;;;-73
2022/09/01 05:35:13;;;;;;;2.7;0.9;;;;;;;;;;;;;-75
2022/09/01 05:39:18;;;;;;;;;;;;;;;14.43;53.51758;102284.1;;;;-75
2022/09/01 05:44:21;;;;;;;;;;;;;;;14.43;53.5957;102281.4;;;;-75
2022/09/01 05:49:18;;;;;;;;;;;;;;;14.45;53.86914;102284.9;;;;-74
2022/09/01 05:54:20;;;;;;;;;;;;;;;14.53;54.18066;102284.1;;;;-75
2022/09/01 05:59:19;;;;;;;;;;;;;;;14.77;54.22266;102288.5;;;;-75
2022/09/01 06:04:18;;;;;;;;;;;;;;;15.26;53.96875;102285.3;;;;-76
2022/09/01 06:05:15;;;;;;;2.3;1;;;;;;;;;;;;;-75
2022/09/01 06:09:22;;;;;;;;;;;;;;;15.84;52.1084;102290.8;;;;-74
2022/09/01 06:14:19;;;;;;;;;;;;;;;16.4;51.35938;102293.3;;;;-75
2022/09/01 06:19:19;;;;;;;;;;;;;;;16.87;50.38281;102292.4;;;;-75
2022/09/01 06:24:18;;;;;;;;;;;;;;;17.3;49.66211;102288.8;;;;-74
2022/09/01 06:29:19;;;;;;;;;;;;;;;17.72;49.15332;102287.2;;;;-75
2022/09/01 06:34:18;;;;;;;;;;;;;;;18.05;49.00781;102288.2;;;;-75
2022/09/01 06:35:17;;;;;;;3.2;1;;;;;;;;;;;;;-75
2022/09/01 06:39:18;;;;;;;;;;;;;;;18.3;48.80762;102287;;;;-75
2022/09/01 06:44:21;;;;;;;;;;;;;;;18.64;48.2207;102290.6;;;;-75
2022/09/01 06:49:19;;;;;;;;;;;;;;;18.91;47.65723;102295.5;;;;-76
2022/09/01 06:54:18;;;;;;;;;;;;;;;19.17;47.34375;102293.4;;;;-75
2022/09/01 06:59:18;;;;;;;;;;;;;;;19.44;47.08594;102299.5;;;;-75
2022/09/01 07:04:20;;;;;;;;;;;;;;;19.68;46.67773;102297.1;;;;-75
2022/09/01 07:05:20;;;;;;;2.8;1.1;;;;;;;;;;;;;-76
2022/09/01 07:09:18;;;;;;;;;;;;;;;19.93;46.38477;102301.6;;;;-75
2022/09/01 07:14:21;;;;;;;;;;;;;;;20.16;45.99805;102296.2;;;;-76
2022/09/01 07:19:18;;;;;;;;;;;;;;;20.43;45.61426;102292.7;;;;-74
2022/09/01 07:24:19;;;;;;;;;;;;;;;20.73;45.29004;102292.1;;;;-75
2022/09/01 07:29:21;;;;;;;;;;;;;;;20.94;44.95605;102297;;;;-75
2022/09/01 07:34:18;;;;;;;;;;;;;;;21.24;44.74609;102296;;;;-75
2022/09/01 07:35:23;;;;;;;2.3;1;;;;;;;;;;;;;-75
2022/09/01 07:39:18;;;;;;;;;;;;;;;21.52;44.49902;102297.4;;;;-75
2022/09/01 07:44:18;;;;;;;;;;;;;;;21.8;44.14844;102302;;;;-75
2022/09/01 07:49:18;;;;;;;;;;;;;;;22.1;44.01758;102303.3;;;;-76
2022/09/01 07:54:18;;;;;;;;;;;;;;;22.41;43.61133;102303.3;;;;-74
2022/09/01 07:59:19;;;;;;;;;;;;;;;22.68;42.95898;102299.2;;;;-75
2022/09/01 08:04:21;;;;;;;;;;;;;;;22.94;42.90332;102301.4;;;;-76
2022/09/01 08:05:25;;;;;;;2.9;0.9;;;;;;;;;;;;;-75
2022/09/01 08:09:18;;;;;;;;;;;;;;;23.3;42.46582;102302.1;;;;-71
2022/09/01 08:14:18;;;;;;;;;;;;;;;23.75;41.88574;102306.2;;;;-71
2022/09/01 08:19:18;;;;;;;;;;;;;;;24.05;41.39453;102311.6;;;;-72
2022/09/01 08:24:18;;;;;;;;;;;;;;;24.33;41.23535;102308.7;;;;-72
2022/09/01 08:29:18;;;;;;;;;;;;;;;24.65;40.7334;102303.6;;;;-71
2022/09/01 08:34:18;;;;;;;;;;;;;;;24.96;40.09082;102305;;;;-75
2022/09/01 08:35:28;;;;;;;2.2;0.8;;;;;;;;;;;;;-75
2022/09/01 08:39:18;;;;;;;;;;;;;;;25.17;39.80859;102303.6;;;;-75
2022/09/01 08:44:22;;;;;;;;;;;;;;;25.4;39.44629;102303.4;;;;-75
2022/09/01 08:49:22;;;;;;;;;;;;;;;25.63;38.99121;102300.6;;;;-77
2022/09/01 08:54:24;;;;;;;;;;;;;;;25.87;38.79199;102305.2;;;;-76
2022/09/01 08:59:18;;;;;;;;;;;;;;;26.18;38.64453;102313.8;;;;-75
2022/09/01 09:04:31;;;;;;;;;;;;;;;26.5;38.17188;102303.2;;;;-75
2022/09/01 09:05:34;;;;;;;4.5;1;;;;;;;;;;;;;-76
2022/09/01 09:09:18;;;;;;;;;;;;;;;26.74;38.05371;102294.5;;;;-76
2022/09/01 09:14:22;;;;;;;;;;;;;;;27.02;37.71582;102298.8;;;;-75
2022/09/01 09:19:21;;;;;;;;;;;;;;;27.39;37.24609;102295.5;;;;-74
2022/09/01 09:24:22;;;;;;;;;;;;;;;27.61;36.68164;102296;;;;-76
2022/09/01 09:29:19;;;;;;;;;;;;;;;27.82;36.65234;102288;;;;-76
2022/09/01 09:34:32;;;;;;;;;;;;;;;28.01;36.29492;102288.5;;;;-76
2022/09/01 09:35:36;;;;;;;2.5;1;;;;;;;;;;;;;-76
2022/09/01 09:39:22;;;;;;;;;;;;;;;28.17;35.56055;102282.5;;;;-75
2022/09/01 09:44:28;;;;;;;;;;;;;;;28.36;35.54102;102275.1;;;;-77
2022/09/01 09:49:25;;;;;;;;;;;;;;;28.52;35.08594;102262.6;;;;-76
2022/09/01 09:54:21;;;;;;;;;;;;;;;28.72;34.57617;102263.3;;;;-76
2022/09/01 09:59:27;;;;;;;;;;;;;;;28.93;34.65039;102257.5;;;;-76
2022/09/01 10:04:28;;;;;;;;;;;;;;;29.16;34.54004;102258.5;;;;-77
2022/09/01 10:05:43;;;;;;;3.1;0.8;;;;;;;;;;;;;-76
2022/09/01 10:09:31;;;;;;;;;;;;;;;29.45;34.28027;102251.5;;;;-77
2022/09/01 10:14:20;;;;;;;;;;;;;;;29.71;33.93652;102255.7;;;;-75
2022/09/01 10:19:18;;;;;;;;;;;;;;;29.97;33.6748;102249;;;;-75
2022/09/01 10:24:22;;;;;;;;;;;;;;;30.16;33.2666;102252.5;;;;-75
2022/09/01 10:29:21;;;;;;;;;;;;;;;30.36;33.41113;102250;;;;-75
2022/09/01 10:34:19;;;;;;;;;;;;;;;30.6;32.85254;102244.3;;;;-75
2022/09/01 10:35:44;;;;;;;2.5;0.8;;;;;;;;;;;;;-76
2022/09/01 10:39:21;;;;;;;;;;;;;;;30.77;32.80762;102240.8;;;;-77
2022/09/01 10:44:21;;;;;;;;;;;;;;;30.99;32.74023;102246.3;;;;-76
2022/09/01 10:49:29;;;;;;;;;;;;;;;31.22;32.0625;102239.7;;;;-76
2022/09/01 10:54:29;;;;;;;;;;;;;;;31.4;31.74609;102237.4;;;;-77
2022/09/01 10:59:27;;;;;;;;;;;;;;;31.51;31.53027;102231.9;;;;-76
2022/09/01 11:04:21;;;;;;;;;;;;;;;31.63;31.51563;102229.2;;;;-77
2022/09/01 11:05:57;;;;;;;4;0.9;;;;;;;;;;;;;-77
2022/09/01 11:09:24;;;;;;;;;;;;;;;31.75;31.93555;102227;;;;-78
2022/09/01 11:14:25;;;;;;;;;;;;;;;31.8;31.31543;102223.6;;;;-77
2022/09/01 11:19:34;;;;;;;;;;;;;;;31.93;31.14746;102225.2;;;;-77
2022/09/01 11:24:29;;;;;;;;;;;;;;;32;30.22168;102229.2;;;;-76
2022/09/01 11:29:29;;;;;;;;;;;;;;;31.98;30.8916;102220.3;;;;-78
2022/09/01 11:34:22;;;;;;;;;;;;;;;32.05;30.40137;102215.6;;;;-78
2022/09/01 11:36:00;;;;;;;2.2;0.7;;;;;;;;;;;;;-77
2022/09/01 11:39:28;;;;;;;;;;;;;;;32.05;30.29492;102218.5;;;;-77
2022/09/01 11:44:27;;;;;;;;;;;;;;;32.09;29.59082;102210.3;;;;-77
2022/09/01 11:49:29;;;;;;;;;;;;;;;32.11;30.27539;102215.2;;;;-77
2022/09/01 11:54:18;;;;;;;;;;;;;;;32.15;30.23145;102208.9;;;;-77
2022/09/01 11:59:18;;;;;;;;;;;;;;;32.28;29.41406;102211.8;;;;-76
2022/09/01 12:04:28;;;;;;;;;;;;;;;32.34;29.40527;102207.1;;;;-76
2022/09/01 12:06:00;;;;;;;2.1;0.5;;;;;;;;;;;;;-77
2022/09/01 12:09:18;;;;;;;;;;;;;;;32.36;29.37207;102194.3;;;;-77
2022/09/01 12:14:22;;;;;;;;;;;;;;;32.34;29.39453;102192;;;;-77
2022/09/01 12:19:30;;;;;;;;;;;;;;;32.41;28.70215;102189.7;;;;-76
2022/09/01 12:24:20;;;;;;;;;;;;;;;32.38;28.3584;102192;;;;-76
2022/09/01 12:29:19;;;;;;;;;;;;;;;32.33;28.72168;102180.9;;;;-76
2022/09/01 12:34:30;;;;;;;;;;;;;;;32.46;28.46875;102184.8;;;;-76
2022/09/01 12:36:12;;;;;;;5.3;0.6;;;;;;;;;;;;;-76
2022/09/01 12:39:27;;;;;;;;;;;;;;;32.45;28.39746;102177.2;;;;-78
2022/09/01 12:44:34;;;;;;;;;;;;;;;32.5;28.44824;102179.2;;;;-77
2022/09/01 12:49:27;;;;;;;;;;;;;;;32.52;28.11914;102177.9;;;;-77
2022/09/01 12:54:18;;;;;;;;;;;;;;;32.48;27.84473;102173.2;;;;-76
2022/09/01 12:59:23;;;;;;;;;;;;;;;32.49;28.25879;102167.3;;;;-77
2022/09/01 13:04:32;;;;;;;;;;;;;;;32.55;27.80176;102160.1;;;;-76
2022/09/01 13:06:13;;;;;;;2.2;0.6;;;;;;;;;;;;;-77
2022/09/01 13:09:18;;;;;;;;;;;;;;;32.53;27.62402;102164.3;;;;-77
2022/09/01 13:14:18;;;;;;;;;;;;;;;32.55;28.25098;102164.1;;;;-77
2022/09/01 13:19:18;;;;;;;;;;;;;;;32.63;27.27539;102160.6;;;;-77
2022/09/01 13:24:18;;;;;;;;;;;;;;;32.65;27.07617;102156.1;;;;-78
2022/09/01 13:29:18;;;;;;;;;;;;;;;32.58;27.37891;102147.7;;;;-77
2022/09/01 13:34:19;;;;;;;;;;;;;;;32.59;27.21387;102142;;;;-77
2022/09/01 13:36:11;;;;;;;2.1;0.6;;;;;;;;;;;;;-76
2022/09/01 13:39:21;;;;;;;;;;;;;;;32.6;27.39258;102131.9;;;;-77
2022/09/01 13:44:18;;;;;;;;;;;;;;;32.72;27.30469;102132.7;;;;-76
2022/09/01 13:49:17;;;;;;;;;;;;;;;32.83;27.53613;102124.7;;;;-77
2022/09/01 13:54:17;;;;;;;;;;;;;;;32.85;27.09961;102121.1;;;;-77
2022/09/01 13:59:18;;;;;;;;;;;;;;;32.82;27.22754;102122.9;;;;-76
2022/09/01 14:04:18;;;;;;;;;;;;;;;32.8;26.71875;102117.4;;;;-80
2022/09/01 14:06:16;;;;;;;1.9;0.6;;;;;;;;;;;;;-76
2022/09/01 14:09:18;;;;;;;;;;;;;;;32.85;26.70996;102120.3;;;;-77
2022/09/01 14:14:18;;;;;;;;;;;;;;;32.82;27.22852;102125;;;;-76
2022/09/01 14:19:18;;;;;;;;;;;;;;;32.83;27.16992;102112.9;;;;-76
2022/09/01 14:24:18;;;;;;;;;;;;;;;32.82;26.79102;102114.6;;;;-77
2022/09/01 14:29:18;;;;;;;;;;;;;;;32.79;26.26855;102105.2;;;;-76
2022/09/01 14:34:18;;;;;;;;;;;;;;;32.69;25.99121;102100.8;;;;-77
2022/09/01 14:36:25;;;;;;;1.4;0.5;;;;;;;;;;;;;-78
2022/09/01 14:39:18;;;;;;;;;;;;;;;32.57;26.49219;102098.1;;;;-77
2022/09/01 14:44:18;;;;;;;;;;;;;;;32.57;26.64648;102093.2;;;;-76
2022/09/01 14:49:18;;;;;;;;;;;;;;;32.56;25.85352;102086.4;;;;-77
2022/09/01 14:54:18;;;;;;;;;;;;;;;32.43;26.22461;102082.3;;;;-76
2022/09/01 14:59:19;;;;;;;;;;;;;;;32.28;26.07422;102076;;;;-75
2022/09/01 15:04:18;;;;;;;;;;;;;;;32.18;26.30469;102071.8;;;;-78
2022/09/01 15:06:32;;;;;;;2.7;0.7;;;;;;;;;;;;;-78
2022/09/01 15:09:18;;;;;;;;;;;;;;;32.04;26.21387;102065;;;;-77
2022/09/01 15:14:18;;;;;;;;;;;;;;;31.94;26.47949;102059.9;;;;-76
2022/09/01 15:19:18;;;;;;;;;;;;;;;31.85;26.67383;102051.1;;;;-77
2022/09/01 15:24:18;;;;;;;;;;;;;;;31.76;26.54004;102047.1;;;;-76
2022/09/01 15:29:18;;;;;;;;;;;;;;;31.69;26.97168;102044.8;;;;-78
2022/09/01 15:34:18;;;;;;;;;;;;;;;31.69;27.11328;102043.2;;;;-76
2022/09/01 15:36:32;;;;;;;1.5;0.8;;;;;;;;;;;;;-76
2022/09/01 15:39:18;;;;;;;;;;;;;;;31.71;26.85449;102039;;;;-76
2022/09/01 15:44:18;;;;;;;;;;;;;;;31.6;26.81348;102028.3;;;;-75
2022/09/01 15:49:18;;;;;;;;;;;;;;;31.48;27.24316;102028.2;;;;-77
2022/09/01 15:54:19;;;;;;;;;;;;;;;31.4;26.91895;102025.5;;;;-77
2022/09/01 15:59:18;;;;;;;;;;;;;;;31.26;27.24121;102022.3;;;;-74
2022/09/01 16:04:19;;;;;;;;;;;;;;;31.13;27.33887;102019.6;;;;-76
2022/09/01 16:06:36;;;;;;;2;0.7;;;;;;;;;;;;;-76
2022/09/01 16:09:19;;;;;;;;;;;;;;;31.01;27.66113;102016;;;;-77
2022/09/01 16:14:19;;;;;;;;;;;;;;;30.89;27.68945;102013.4;;;;-78
2022/09/01 16:19:24;;;;;;;;;;;;;;;30.76;27.90527;102010;;;;-78
2022/09/01 16:24:21;;;;;;;;;;;;;;;30.6;27.82422;102005.9;;;;-76
2022/09/01 16:29:22;;;;;;;;;;;;;;;30.4;27.90625;102005.8;;;;-76
2022/09/01 16:34:19;;;;;;;;;;;;;;;30.18;28.0918;101998.9;;;;-77
2022/09/01 16:36:43;;;;;;;3.3;0.7;;;;;;;;;;;;;-76
2022/09/01 16:39:22;;;;;;;;;;;;;;;29.97;28.33789;101995;;;;-77
2022/09/01 16:44:26;;;;;;;;;;;;;;;29.77;28.6416;101986.4;;;;-76
2022/09/01 16:49:23;;;;;;;;;;;;;;;29.64;28.72754;101983;;;;-77
2022/09/01 16:54:24;;;;;;;;;;;;;;;29.46;28.82129;101984;;;;-77
2022/09/01 16:59:24;;;;;;;;;;;;;;;29.26;29.01953;101976.9;;;;-76
2022/09/01 17:04:25;;;;;;;;;;;;;;;29.05;29.00684;101980;;;;-75
2022/09/01 17:06:50;;;;;;;1.6;0.8;;;;;;;;;;;;;-74
2022/09/01 17:09:22;;;;;;;;;;;;;;;28.78;29.28223;101980.6;;;;-79
2022/09/01 17:14:20;;;;;;;;;;;;;;;28.53;29.48828;101982.5;;;;-76
2022/09/01 17:19:20;;;;;;;;;;;;;;;28.27;29.69336;101978.4;;;;-77
2022/09/01 17:24:27;;;;;;;;;;;;;;;28;29.99121;101972.8;;;;-75
2022/09/01 17:29:21;;;;;;;;;;;;;;;27.74;30.14941;101974.5;;;;-76
2022/09/01 17:34:26;;;;;;;;;;;;;;;27.45;30.52637;101963.1;;;;-79
2022/09/01 17:36:55;;;;;;;1.8;0.7;;;;;;;;;;;;;-77
2022/09/01 17:39:21;;;;;;;;;;;;;;;27.19;30.93945;101965.2;;;;-78
2022/09/01 17:44:23;;;;;;;;;;;;;;;26.89;31.23438;101964.5;;;;-77
2022/09/01 17:49:22;;;;;;;;;;;;;;;26.63;31.49512;101959.9;;;;-78
2022/09/01 17:54:22;;;;;;;;;;;;;;;26.34;31.71875;101961;;;;-76
2022/09/01 17:59:21;;;;;;;;;;;;;;;25.98;32.07813;101963.7;;;;-78
2022/09/01 18:04:34;;;;;;;;;;;;;;;25.63;32.49414;101966.3;;;;-79
2022/09/01 18:06:55;;;;;;;1.3;0.8;;;;;;;;;;;;;-78
2022/09/01 18:09:19;;;;;;;;;;;;;;;25.36;32.63672;101965.9;;;;-78
2022/09/01 18:14:19;;;;;;;;;;;;;;;25.07;33.18457;101972.9;;;;-77
2022/09/01 18:19:20;;;;;;;;;;;;;;;24.74;33.62402;101973.4;;;;-76
2022/09/01 18:24:20;;;;;;;;;;;;;;;24.45;34.01855;101970.9;;;;-73
2022/09/01 18:29:18;;;;;;;;;;;;;;;24.18;34.31055;101973.9;;;;-77
2022/09/01 18:34:22;;;;;;;;;;;;;;;23.96;34.55957;101977.6;;;;-79
2022/09/01 18:37:01;;;;;;;1.6;0.8;;;;;;;;;;;;;-77
2022/09/01 18:39:22;;;;;;;;;;;;;;;23.7;35.03711;101979;;;;-77
2022/09/01 18:44:26;;;;;;;;;;;;;;;23.44;35.74316;101981.5;;;;-79
2022/09/01 18:49:26;;;;;;;;;;;;;;;23.2;36.0127;101985.4;;;;-77
2022/09/01 18:54:21;;;;;;;;;;;;;;;22.98;36.38672;101981.7;;;;-78
2022/09/01 18:59:27;;;;;;;;;;;;;;;22.77;37.07227;101992.7;;;;-76
2022/09/01 19:04:22;;;;;;;;;;;;;;;22.55;37.65332;101991.6;;;;-75
2022/09/01 19:07:06;;;;;;;1.9;0.9;;;;;;;;;;;;;-77
2022/09/01 19:09:22;;;;;;;;;;;;;;;22.34;38.29199;101991.4;;;;-78
2022/09/01 19:14:24;;;;;;;;;;;;;;;22.17;38.25391;101999.3;;;;-76
2022/09/01 19:19:25;;;;;;;;;;;;;;;22;38.6416;102003;;;;-75
2022/09/01 19:24:23;;;;;;;;;;;;;;;21.85;38.96191;102006.3;;;;-77
2022/09/01 19:29:20;;;;;;;;;;;;;;;21.69;39.13281;102004.3;;;;-76
2022/09/01 19:34:19;;;;;;;;;;;;;;;21.55;39.4873;102007.7;;;;-76
2022/09/01 19:37:05;;;;;;;2;0.9;;;;;;;;;;;;;-77
2022/09/01 19:39:19;;;;;;;;;;;;;;;21.41;39.7627;102007.1;;;;-76
2022/09/01 19:44:22;;;;;;;;;;;;;;;21.26;40.07031;102005.4;;;;-77
2022/09/01 19:49:24;;;;;;;;;;;;;;;21.13;40.43652;102005.8;;;;-75
2022/09/01 19:54:25;;;;;;;;;;;;;;;20.99;40.43457;102008.4;;;;-75
2022/09/01 19:59:21;;;;;;;;;;;;;;;20.87;40.88379;102011.7;;;;-75
2022/09/01 20:04:26;;;;;;;;;;;;;;;20.73;41.47656;102011.5;;;;-76
2022/09/01 20:07:07;;;;;;;1.4;0.9;;;;;;;;;;;;;-74
2022/09/01 20:09:20;;;;;;;;;;;;;;;20.6;41.66016;102010;;;;-75
2022/09/01 20:14:28;;;;;;;;;;;;;;;20.5;41.83398;102010.1;;;;-75
2022/09/01 20:19:19;;;;;;;;;;;;;;;20.4;42.24805;102008.8;;;;-75
2022/09/01 20:24:20;;;;;;;;;;;;;;;20.28;42.68262;102002.7;;;;-76
2022/09/01 20:29:24;;;;;;;;;;;;;;;20.19;42.66211;102006.6;;;;-75
2022/09/01 20:34:23;;;;;;;;;;;;;;;20.1;42.68848;102009.9;;;;-73
2022/09/01 20:37:13;;;;;;;3.5;0.9;;;;;;;;;;;;;-75
2022/09/01 20:44:25;;;;;;;;;;;;;;;19.91;42.8877;102002.3;;;;-76
2022/09/01 20:49:18;;;;;;;;;;;;;;;19.83;42.90234;102002.7;;;;-74
2022/09/01 20:54:27;;;;;;;;;;;;;;;19.71;42.84473;102003;;;;-75
2022/09/01 20:59:20;;;;;;;;;;;;;;;19.63;42.84863;102009.6;;;;-76
2022/09/01 21:04:22;;;;;;;;;;;;;;;19.52;42.95215;102008.4;;;;-75
2022/09/01 21:07:15;;;;;;;1.8;0.9;;;;;;;;;;;;;-74
2022/09/01 21:09:22;;;;;;;;;;;;;;;19.41;42.89648;102004.8;;;;-75
2022/09/01 21:14:28;;;;;;;;;;;;;;;19.3;42.98828;102007.8;;;;-75
2022/09/01 21:19:22;;;;;;;;;;;;;;;19.2;43.09277;102005.6;;;;-74
2022/09/01 21:24:18;;;;;;;;;;;;;;;19.11;43.31152;102004.1;;;;-74
2022/09/01 21:29:27;;;;;;;;;;;;;;;19;43.32422;101996.3;;;;-76
2022/09/01 21:34:17;;;;;;;;;;;;;;;18.91;43.62402;101997;;;;-76
2022/09/01 21:37:13;;;;;;;2.2;1.1;;;;;;;;;;;;;-74
2022/09/01 21:39:20;;;;;;;;;;;;;;;18.81;44.10254;101995.8;;;;-75
2022/09/01 21:44:18;;;;;;;;;;;;;;;18.69;43.93262;101992.5;;;;-75
2022/09/01 21:49:18;;;;;;;;;;;;;;;18.6;44.41309;101994.2;;;;-74
2022/09/01 21:54:17;;;;;;;;;;;;;;;18.53;44.41699;101995.7;;;;-75
2022/09/01 21:59:19;;;;;;;;;;;;;;;18.49;44.76563;101993.2;;;;-76
2022/09/01 22:04:18;;;;;;;;;;;;;;;18.44;45.02344;101990.2;;;;-75
2022/09/01 22:07:19;;;;;;;2.1;0.9;;;;;;;;;;;;;-74
2022/09/01 22:09:18;;;;;;;;;;;;;;;18.36;45.04883;101986.2;;;;-74
2022/09/01 22:14:18;;;;;;;;;;;;;;;18.31;45.52148;101982;;;;-75
2022/09/01 22:19:18;;;;;;;;;;;;;;;18.28;45.40527;101986.4;;;;-74
2022/09/01 22:24:18;;;;;;;;;;;;;;;18.22;45.43359;101988.6;;;;-75
2022/09/01 22:29:17;;;;;;;;;;;;;;;18.21;46.13867;101986;;;;-75
2022/09/01 22:34:17;;;;;;;;;;;;;;;18.19;45.9873;101984.2;;;;-75
2022/09/01 22:37:17;;;;;;;3.4;0.8;;;;;;;;;;;;;-76
2022/09/01 22:39:18;;;;;;;;;;;;;;;18.15;46.29102;101982.8;;;;-73
2022/09/01 22:44:17;;;;;;;;;;;;;;;18.13;46.02637;101980;;;;-75
2022/09/01 22:49:17;;;;;;;;;;;;;;;18.09;46.06836;101978.5;;;;-74
2022/09/01 22:54:18;;;;;;;;;;;;;;;18.03;45.87988;101975.8;;;;-74
2022/09/01 22:59:19;;;;;;;;;;;;;;;18;45.75293;101971.4;;;;-74
2022/09/01 23:04:18;;;;;;;;;;;;;;;17.98;45.85254;101968.4;;;;-75
2022/09/01 23:07:19;;;;;;;3;0.9;;;;;;;;;;;;;-75
2022/09/01 23:09:18;;;;;;;;;;;;;;;17.94;45.7793;101962;;;;-77
2022/09/01 23:14:17;;;;;;;;;;;;;;;17.9;46.32227;101962.3;;;;-76
2022/09/01 23:19:19;;;;;;;;;;;;;;;17.84;46.32715;101957.1;;;;-75
2022/09/01 23:24:18;;;;;;;;;;;;;;;17.81;46.5957;101952.5;;;;-75
2022/09/01 23:29:17;;;;;;;;;;;;;;;17.74;46.25879;101950.2;;;;-75
2022/09/01 23:34:17;;;;;;;;;;;;;;;17.72;46.51855;101947.8;;;;-75
2022/09/01 23:37:21;;;;;;;2.1;0.9;;;;;;;;;;;;;-75
2022/09/01 23:39:18;;;;;;;;;;;;;;;17.68;46.51367;101939.6;;;;-75
2022/09/01 23:44:19;;;;;;;;;;;;;;;17.63;46.52051;101933;;;;-75
2022/09/01 23:49:18;;;;;;;;;;;;;;;17.6;46.41504;101926;;;;-75
2022/09/01 23:54:18;;;;;;;;;;;;;;;17.58;46.65137;101922.6;;;;-76
2022/09/01 23:59:17;;;;;;;;;;;;;;;17.54;46.7373;101917.2;;;;-75
